createdAt,value
2024-02-05T00:00:04.919Z,97424.97
2024-02-05T00:02:31.280Z,97415.31
2024-02-05T00:04:57.651Z,97416.16
2024-02-05T00:07:24.093Z,97411.38
2024-02-05T00:09:50.503Z,97404.56
2024-02-05T00:12:16.880Z,97405.34
2024-02-05T00:14:43.249Z,97398.50
2024-02-05T00:17:09.591Z,97401.78
2024-02-05T00:19:36.026Z,97398.25
2024-02-05T00:22:02.476Z,97391.34
2024-02-05T00:24:28.858Z,97397.78
2024-02-05T00:26:55.251Z,97403.84
2024-02-05T00:29:21.641Z,97407.41
2024-02-05T00:31:47.974Z,97407.47
2024-02-05T00:34:14.363Z,97404.34
2024-02-05T00:36:40.903Z,97397.56
2024-02-05T00:39:07.266Z,97402.78
2024-02-05T00:41:33.607Z,97397.66
2024-02-05T00:43:59.986Z,97395.66
2024-02-05T00:46:26.439Z,97390.13
2024-02-05T00:48:52.876Z,97396.16
2024-02-05T00:51:19.342Z,97393.34
2024-02-05T00:53:45.680Z,97392.56
2024-02-05T00:56:12.029Z,97394.56
2024-02-05T00:58:44.631Z,97399.38
2024-02-05T01:01:11.098Z,97389.41
2024-02-05T01:03:37.647Z,97385.03
2024-02-05T01:06:04.412Z,97386.22
2024-02-05T01:08:30.838Z,97383.78
2024-02-05T01:10:57.174Z,97389.84
2024-02-05T01:13:23.582Z,97395.00
2024-02-05T01:15:50.033Z,97393.84
2024-02-05T01:18:16.545Z,97385.47
2024-02-05T01:20:42.957Z,97383.13
2024-02-05T01:23:09.298Z,97373.53
2024-02-05T01:25:35.651Z,97377.50
2024-02-05T01:28:02.084Z,97374.72
2024-02-05T01:30:28.462Z,97369.09
2024-02-05T01:32:54.842Z,97367.94
2024-02-05T01:35:21.263Z,97367.97
2024-02-05T01:37:47.618Z,97363.97
2024-02-05T01:40:14.012Z,97363.59
2024-02-05T01:42:41.660Z,97368.72
2024-02-05T01:45:08.019Z,97364.06
2024-02-05T01:47:34.364Z,97362.47
2024-02-05T01:50:00.781Z,97361.66
2024-02-05T01:52:27.199Z,97352.88
2024-02-05T01:54:53.621Z,97355.66
2024-02-05T01:57:20.045Z,97357.69
2024-02-05T01:59:46.414Z,97351.28
2024-02-05T02:02:12.778Z,97358.44
2024-02-05T02:04:39.276Z,97338.53
2024-02-05T02:07:05.773Z,97347.25
2024-02-05T02:09:32.188Z,97353.66
2024-02-05T02:11:58.588Z,97343.69
2024-02-05T02:14:24.914Z,97340.09
2024-02-05T02:16:51.259Z,97334.88
2024-02-05T02:19:17.713Z,97327.34
2024-02-05T02:21:44.113Z,97321.34
2024-02-05T02:24:10.464Z,97324.94
2024-02-05T02:26:36.822Z,97324.19
2024-02-05T02:29:03.181Z,97313.41
2024-02-05T02:31:29.554Z,97305.38
2024-02-05T02:33:56.029Z,97301.47
2024-02-05T02:36:22.417Z,97302.22
2024-02-05T02:38:48.757Z,97297.44
2024-02-05T02:41:15.113Z,97295.38
2024-02-05T02:43:41.449Z,97295.38
2024-02-05T02:46:07.800Z,97290.22
2024-02-05T02:48:34.507Z,97291.84
2024-02-05T02:51:00.890Z,97283.50
2024-02-05T02:53:27.262Z,97278.28
2024-02-05T02:55:53.627Z,97284.66
2024-02-05T02:58:20.218Z,97279.91
2024-02-05T03:00:46.822Z,97277.47
2024-02-05T03:03:13.305Z,97276.75
2024-02-05T03:05:39.728Z,97290.69
2024-02-05T03:08:06.138Z,97288.75
2024-02-05T03:10:32.519Z,97273.22
2024-02-05T03:12:58.904Z,97268.34
2024-02-05T03:15:25.307Z,97266.78
2024-02-05T03:17:51.745Z,97269.19
2024-02-05T03:20:18.128Z,97275.13
2024-02-05T03:22:50.145Z,97271.50
2024-02-05T03:25:19.546Z,97273.03
2024-02-05T03:27:46.016Z,97276.97
2024-02-05T03:30:12.377Z,97268.56
2024-02-05T03:32:38.791Z,97276.16
2024-02-05T03:35:05.220Z,97267.88
2024-02-05T03:37:31.572Z,97283.50
2024-02-05T03:39:57.997Z,97290.75
2024-02-05T03:42:24.381Z,97297.19
2024-02-05T03:44:50.767Z,97315.09
2024-02-05T03:47:17.124Z,97312.75
2024-02-05T03:49:43.585Z,97315.56
2024-02-05T03:52:09.990Z,97321.13
2024-02-05T03:54:36.452Z,97310.00
2024-02-05T03:57:02.929Z,97316.38
2024-02-05T03:59:29.292Z,97304.03
2024-02-05T04:01:55.690Z,97302.03
2024-02-05T04:04:22.281Z,97291.72
2024-02-05T04:06:48.722Z,97280.63
2024-02-05T04:09:15.130Z,97271.06
2024-02-05T04:11:41.478Z,97267.50
2024-02-05T04:14:07.817Z,97269.53
2024-02-05T04:16:37.375Z,97267.13
2024-02-05T04:19:03.897Z,97269.94
2024-02-05T04:21:30.289Z,97268.31
2024-02-05T04:23:56.682Z,97264.31
2024-02-05T04:26:23.027Z,97275.41
2024-02-05T04:28:49.470Z,97266.28
2024-02-05T04:31:15.916Z,97276.69
2024-02-05T04:33:42.633Z,97274.31
2024-02-05T04:36:09.071Z,97277.50
2024-02-05T04:38:35.433Z,97287.06
2024-02-05T04:41:01.805Z,97279.47
2024-02-05T04:43:28.413Z,97283.06
2024-02-05T04:45:54.833Z,97278.31
2024-02-05T04:48:21.378Z,97281.06
2024-02-05T04:50:47.825Z,97279.91
2024-02-05T04:53:14.187Z,97270.38
2024-02-05T04:55:41.770Z,97280.69
2024-02-05T04:58:08.537Z,97275.91
2024-02-05T05:00:34.946Z,97273.94
2024-02-05T05:03:01.301Z,97287.06
2024-02-05T05:05:27.724Z,97283.09
2024-02-05T05:07:54.151Z,97294.19
2024-02-05T05:10:20.554Z,97289.03
2024-02-05T05:12:46.965Z,97293.41
2024-02-05T05:15:13.346Z,97291.03
2024-02-05T05:17:39.758Z,97308.47
2024-02-05T05:20:06.151Z,97295.38
2024-02-05T05:22:32.523Z,97298.56
2024-02-05T05:24:58.935Z,97297.38
2024-02-05T05:27:25.314Z,97301.34
2024-02-05T05:29:51.794Z,97311.31
2024-02-05T05:32:18.144Z,97299.00
2024-02-05T05:34:44.507Z,97306.97
2024-02-05T05:37:10.992Z,97298.25
2024-02-05T05:39:37.361Z,97299.03
2024-02-05T05:42:03.710Z,97293.06
2024-02-05T05:44:30.080Z,97295.03
2024-02-05T05:46:56.422Z,97295.88
2024-02-05T05:49:24.683Z,97287.09
2024-02-05T05:51:51.166Z,97299.00
2024-02-05T05:54:17.543Z,97292.66
2024-02-05T05:56:43.910Z,97291.09
2024-02-05T05:59:10.342Z,97303.00
2024-02-05T06:01:36.923Z,97297.84
2024-02-05T06:04:03.741Z,97302.25
2024-02-05T06:06:30.309Z,97303.06
2024-02-05T06:08:56.663Z,97303.47
2024-02-05T06:11:23.012Z,97305.47
2024-02-05T06:13:49.444Z,97305.88
2024-02-05T06:16:15.886Z,97305.84
2024-02-05T06:18:42.467Z,97303.88
2024-02-05T06:21:08.903Z,97302.66
2024-02-05T06:23:35.290Z,97311.03
2024-02-05T06:26:01.653Z,97309.84
2024-02-05T06:28:28.095Z,97309.44
2024-02-05T06:30:54.496Z,97304.66
2024-02-05T06:33:20.875Z,97316.56
2024-02-05T06:35:47.254Z,97309.44
2024-02-05T06:38:13.601Z,97306.66
2024-02-05T06:40:39.963Z,97315.81
2024-02-05T06:43:06.349Z,97315.00
2024-02-05T06:45:32.733Z,97330.91
2024-02-05T06:47:59.244Z,97334.50
2024-02-05T06:50:25.701Z,97356.38
2024-02-05T06:52:52.071Z,97351.59
2024-02-05T06:55:18.450Z,97351.63
2024-02-05T06:57:44.898Z,97339.28
2024-02-05T07:00:11.261Z,97328.56
2024-02-05T07:02:37.620Z,97319.81
2024-02-05T07:05:04.144Z,97327.75
2024-02-05T07:07:30.681Z,97330.53
2024-02-05T07:09:57.140Z,97342.84
2024-02-05T07:12:23.521Z,97363.53
2024-02-05T07:14:49.853Z,97354.38
2024-02-05T07:17:16.194Z,97351.56
2024-02-05T07:19:42.735Z,97353.16
2024-02-05T07:22:09.190Z,97354.75
2024-02-05T07:24:35.575Z,97356.75
2024-02-05T07:27:01.997Z,97379.41
2024-02-05T07:29:28.341Z,97376.22
2024-02-05T07:31:54.707Z,97382.56
2024-02-05T07:34:21.141Z,97380.16
2024-02-05T07:36:47.572Z,97380.56
2024-02-05T07:39:13.915Z,97396.09
2024-02-05T07:41:40.283Z,97392.88
2024-02-05T07:44:06.670Z,97394.47
2024-02-05T07:46:33.079Z,97395.66
2024-02-05T07:48:59.541Z,97389.28
2024-02-05T07:51:25.921Z,97389.25
2024-02-05T07:53:52.282Z,97390.50
2024-02-05T07:56:18.659Z,97403.63
2024-02-05T07:58:44.995Z,97400.88
2024-02-05T08:01:11.460Z,97408.41
2024-02-05T08:03:37.890Z,97406.81
2024-02-05T08:06:04.266Z,97405.25
2024-02-05T08:08:30.628Z,97405.22
2024-02-05T08:10:57.013Z,97400.06
2024-02-05T08:13:23.472Z,97397.63
2024-02-05T08:15:49.916Z,97394.47
2024-02-05T08:18:16.434Z,97400.03
2024-02-05T08:20:43.035Z,97396.44
2024-02-05T08:23:09.423Z,97397.59
2024-02-05T08:25:35.910Z,97400.34
2024-02-05T08:28:02.312Z,97402.38
2024-02-05T08:30:28.694Z,97399.41
2024-02-05T08:32:55.137Z,97389.38
2024-02-05T08:35:21.611Z,97389.31
2024-02-05T08:37:47.959Z,97384.81
2024-02-05T08:40:14.396Z,97378.00
2024-02-05T08:42:40.813Z,97379.53
2024-02-05T08:45:07.188Z,97378.69
2024-02-05T08:47:33.753Z,97360.59
2024-02-05T08:50:00.321Z,97364.13
2024-02-05T08:52:26.961Z,97368.09
2024-02-05T08:54:53.563Z,97365.88
2024-02-05T08:57:19.988Z,97375.47
2024-02-05T08:59:46.381Z,97369.25
2024-02-05T09:02:12.959Z,97365.94
2024-02-05T09:04:39.447Z,97355.03
2024-02-05T09:07:05.965Z,97359.53
2024-02-05T09:09:32.388Z,97365.31
2024-02-05T09:12:05.696Z,97358.28
2024-02-05T09:14:33.786Z,97366.66
2024-02-05T09:17:00.130Z,97356.25
2024-02-05T09:19:26.555Z,97355.75
2024-02-05T09:21:53.029Z,97358.34
2024-02-05T09:24:19.384Z,97360.66
2024-02-05T09:26:45.733Z,97357.97
2024-02-05T09:29:12.109Z,97349.09
2024-02-05T09:31:38.579Z,97351.06
2024-02-05T09:34:05.041Z,97333.34
2024-02-05T09:36:31.491Z,97336.25
2024-02-05T09:38:57.850Z,97339.84
2024-02-05T09:41:24.216Z,97346.53
2024-02-05T09:43:50.604Z,97343.66
2024-02-05T09:46:17.020Z,97351.31
2024-02-05T09:48:43.536Z,97336.56
2024-02-05T09:51:09.981Z,97328.22
2024-02-05T09:53:36.356Z,97328.19
2024-02-05T09:56:02.925Z,97335.72
2024-02-05T09:58:29.394Z,97330.25
2024-02-05T10:00:55.884Z,97319.19
2024-02-05T10:03:22.402Z,97318.19
2024-02-05T10:05:48.816Z,97309.44
2024-02-05T10:08:15.184Z,97309.91
2024-02-05T10:10:41.618Z,97305.97
2024-02-05T10:13:08.107Z,97299.69
2024-02-05T10:15:34.514Z,97294.63
2024-02-05T10:18:00.950Z,97301.44
2024-02-05T10:20:27.357Z,97290.56
2024-02-05T10:22:53.722Z,97285.25
2024-02-05T10:25:20.119Z,97264.44
2024-02-05T10:27:46.596Z,97260.66
2024-02-05T10:30:13.002Z,97255.75
2024-02-05T10:32:39.440Z,97249.81
2024-02-05T10:35:06.026Z,97242.78
2024-02-05T10:37:32.560Z,97250.56
2024-02-05T10:39:58.950Z,97248.38
2024-02-05T10:42:25.397Z,97245.41
2024-02-05T10:44:51.767Z,97253.22
2024-02-05T10:47:18.157Z,97252.34
2024-02-05T10:49:44.686Z,97248.06
2024-02-05T10:52:13.430Z,97262.84
2024-02-05T10:54:42.462Z,97255.41
2024-02-05T10:57:08.877Z,97266.03
2024-02-05T10:59:35.239Z,97242.63
2024-02-05T11:02:01.826Z,97248.34
2024-02-05T11:04:28.372Z,97223.38
2024-02-05T11:06:54.936Z,97223.00
2024-02-05T11:09:21.309Z,97238.75
2024-02-05T11:11:47.720Z,97229.66
2024-02-05T11:14:14.102Z,97231.03
2024-02-05T11:16:40.622Z,97217.63
2024-02-05T11:19:07.124Z,97218.94
2024-02-05T11:21:33.559Z,97199.59
2024-02-05T11:23:59.920Z,97187.78
2024-02-05T11:26:26.291Z,97180.19
2024-02-05T11:28:52.666Z,97183.84
2024-02-05T11:31:19.106Z,97183.63
2024-02-05T11:33:45.599Z,97169.56
2024-02-05T11:36:12.002Z,97160.25
2024-02-05T11:38:38.352Z,97153.47
2024-02-05T11:41:04.776Z,97151.53
2024-02-05T11:43:31.373Z,97133.56
2024-02-05T11:45:57.913Z,97140.00
2024-02-05T11:48:24.498Z,97159.00
2024-02-05T11:50:51.093Z,97164.50
2024-02-05T11:53:17.461Z,97164.50
2024-02-05T11:55:43.835Z,97163.63
2024-02-05T11:58:10.238Z,97159.34
2024-02-05T12:00:36.632Z,97160.94
2024-02-05T12:03:03.080Z,97143.13
2024-02-05T12:05:29.503Z,97145.75
2024-02-05T12:07:56.127Z,97133.47
2024-02-05T12:10:22.675Z,97138.84
2024-02-05T12:12:49.103Z,97145.47
2024-02-05T12:15:15.486Z,97148.97
2024-02-05T12:17:41.940Z,97136.38
2024-02-05T12:20:08.555Z,97134.03
2024-02-05T12:22:35.107Z,97113.53
2024-02-05T12:25:01.616Z,97125.72
2024-02-05T12:27:28.000Z,97124.59
2024-02-05T12:29:54.362Z,97113.34
2024-02-05T12:32:21.013Z,97121.41
2024-02-05T12:34:48.079Z,97116.56
2024-02-05T12:37:14.553Z,97116.47
2024-02-05T12:39:40.982Z,97121.16
2024-02-05T12:42:07.366Z,97113.66
2024-02-05T12:44:39.450Z,97106.22
2024-02-05T12:47:09.577Z,97095.59
2024-02-05T12:49:36.059Z,97117.00
2024-02-05T12:52:02.452Z,97096.91
2024-02-05T12:54:28.873Z,97093.19
2024-02-05T12:56:55.267Z,97090.13
2024-02-05T12:59:21.642Z,97089.69
2024-02-05T13:01:48.075Z,97084.16
2024-02-05T13:04:14.623Z,97073.06
2024-02-05T13:06:41.149Z,97071.91
2024-02-05T13:09:07.590Z,97066.41
2024-02-05T13:11:33.943Z,97066.16
2024-02-05T13:14:00.296Z,97067.53
2024-02-05T13:16:26.923Z,97076.13
2024-02-05T13:18:53.469Z,97066.75
2024-02-05T13:21:19.940Z,97063.91
2024-02-05T13:23:46.309Z,97053.44
2024-02-05T13:26:12.662Z,97061.44
2024-02-05T13:28:39.028Z,97057.50
2024-02-05T13:31:05.430Z,97058.09
2024-02-05T13:33:31.815Z,97057.91
2024-02-05T13:35:58.171Z,97043.00
2024-02-05T13:38:24.647Z,97042.84
2024-02-05T13:40:51.004Z,97052.94
2024-02-05T13:43:17.352Z,97047.56
2024-02-05T13:45:43.959Z,97046.09
2024-02-05T13:48:10.424Z,97037.06
2024-02-05T13:50:36.828Z,97037.88
2024-02-05T13:53:03.244Z,97030.22
2024-02-05T13:55:29.711Z,97024.19
2024-02-05T13:57:56.119Z,97015.91
2024-02-05T14:00:22.512Z,97009.53
2024-02-05T14:02:48.858Z,97017.38
2024-02-05T14:05:15.444Z,97010.56
2024-02-05T14:07:42.182Z,97020.38
2024-02-05T14:10:08.828Z,97019.06
2024-02-05T14:12:35.325Z,97009.59
2024-02-05T14:15:01.775Z,97013.41
2024-02-05T14:17:28.186Z,97018.53
2024-02-05T14:19:54.735Z,97013.78
2024-02-05T14:22:21.313Z,97009.66
2024-02-05T14:24:47.811Z,97013.31
2024-02-05T14:27:14.179Z,97015.41
2024-02-05T14:29:40.577Z,97014.03
2024-02-05T14:32:06.940Z,97017.09
2024-02-05T14:34:34.522Z,97012.59
2024-02-05T14:37:01.245Z,97006.13
2024-02-05T14:39:27.645Z,97012.16
2024-02-05T14:41:54.010Z,97008.22
2024-02-05T14:44:20.407Z,97013.31
2024-02-05T14:46:46.861Z,97000.84
2024-02-05T14:49:13.347Z,97002.97
2024-02-05T14:51:40.097Z,97003.31
2024-02-05T14:54:06.941Z,97000.31
2024-02-05T14:56:33.316Z,97007.69
2024-02-05T14:58:59.687Z,97001.66
2024-02-05T15:01:26.100Z,97001.50
2024-02-05T15:03:52.613Z,96994.22
2024-02-05T15:06:19.368Z,96994.53
2024-02-05T15:08:45.787Z,96993.34
2024-02-05T15:11:12.405Z,96991.06
2024-02-05T15:13:38.884Z,97000.34
2024-02-05T15:16:05.288Z,96987.47
2024-02-05T15:18:31.698Z,96983.97
2024-02-05T15:20:58.105Z,96990.81
2024-02-05T15:23:24.472Z,96986.19
2024-02-05T15:25:50.927Z,96987.22
2024-02-05T15:28:17.300Z,96983.88
2024-02-05T15:30:43.677Z,96983.09
2024-02-05T15:33:13.001Z,96986.31
2024-02-05T15:35:39.786Z,96984.75
2024-02-05T15:38:06.281Z,96982.84
2024-02-05T15:40:32.715Z,96982.94
2024-02-05T15:42:59.127Z,96980.50
2024-02-05T15:45:25.522Z,96983.28
2024-02-05T15:47:51.942Z,96981.28
2024-02-05T15:50:18.597Z,96982.94
2024-02-05T15:52:45.084Z,96986.19
2024-02-05T15:55:11.458Z,96987.59
2024-02-05T15:57:37.919Z,96983.03
2024-02-05T16:00:04.279Z,96993.72
2024-02-05T16:02:32.000Z,96990.25
2024-02-05T16:04:58.475Z,96988.69
2024-02-05T16:07:26.063Z,96985.13
2024-02-05T16:09:53.656Z,96987.34
2024-02-05T16:12:20.073Z,96981.00
2024-02-05T16:14:46.437Z,96987.16
2024-02-05T16:17:13.127Z,96981.63
2024-02-05T16:19:39.570Z,96986.97
2024-02-05T16:22:05.958Z,96984.44
2024-02-05T16:24:32.354Z,96988.81
2024-02-05T16:26:58.715Z,96987.59
2024-02-05T16:29:25.073Z,96985.56
2024-02-05T16:31:51.490Z,96990.41
2024-02-05T16:34:18.091Z,96994.09
2024-02-05T16:36:44.539Z,96992.41
2024-02-05T16:39:10.907Z,96986.91
2024-02-05T16:41:37.381Z,96986.38
2024-02-05T16:44:03.776Z,96991.91
2024-02-05T16:46:30.178Z,96989.59
2024-02-05T16:48:56.664Z,96996.16
2024-02-05T16:51:23.050Z,97003.59
2024-02-05T16:53:49.414Z,97009.78
2024-02-05T16:56:15.814Z,97005.38
2024-02-05T16:58:42.271Z,97002.75
2024-02-05T17:01:08.743Z,97001.72
2024-02-05T17:03:35.284Z,97007.81
2024-02-05T17:06:01.710Z,97010.25
2024-02-05T17:08:28.093Z,97002.91
2024-02-05T17:10:54.616Z,97000.31
2024-02-05T17:13:21.069Z,97001.97
2024-02-05T17:15:47.487Z,97003.69
2024-02-05T17:18:15.112Z,97000.88
2024-02-05T17:20:41.520Z,97005.78
2024-02-05T17:23:07.857Z,97001.47
2024-02-05T17:25:34.295Z,97002.38
2024-02-05T17:28:00.779Z,97005.84
2024-02-05T17:30:27.175Z,97007.53
2024-02-05T17:32:53.755Z,97006.88
2024-02-05T17:35:20.537Z,97006.38
2024-02-05T17:37:47.010Z,97001.63
2024-02-05T17:40:13.671Z,97005.47
2024-02-05T17:42:40.063Z,97009.53
2024-02-05T17:45:06.398Z,97007.63
2024-02-05T17:47:32.875Z,97010.31
2024-02-05T17:49:59.373Z,97006.06
2024-02-05T17:52:25.854Z,97014.47
2024-02-05T17:54:52.230Z,97010.09
2024-02-05T17:57:18.633Z,97016.91
2024-02-05T17:59:44.990Z,97020.94
2024-02-05T18:02:11.520Z,97018.97
2024-02-05T18:04:38.072Z,97009.88
2024-02-05T18:07:04.694Z,97013.13
2024-02-05T18:09:31.183Z,97016.75
2024-02-05T18:11:57.545Z,97010.38
2024-02-05T18:14:23.894Z,97011.25
2024-02-05T18:16:50.274Z,97010.44
2024-02-05T18:19:16.722Z,97005.66
2024-02-05T18:21:43.097Z,97009.00
2024-02-05T18:24:09.496Z,97017.03
2024-02-05T18:26:35.967Z,97006.63
2024-02-05T18:29:02.307Z,97004.91
2024-02-05T18:31:28.839Z,97004.25
2024-02-05T18:33:55.322Z,97010.28
2024-02-05T18:36:21.761Z,97010.94
2024-02-05T18:38:48.139Z,97009.06
2024-02-05T18:41:14.481Z,97001.47
2024-02-05T18:43:40.914Z,97004.84
2024-02-05T18:46:07.355Z,97004.88
2024-02-05T18:48:33.780Z,96993.78
2024-02-05T18:51:00.204Z,97005.44
2024-02-05T18:53:26.553Z,97002.22
2024-02-05T18:55:52.894Z,97006.19
2024-02-05T18:58:19.363Z,97006.25
2024-02-05T19:00:45.806Z,97006.31
2024-02-05T19:03:12.220Z,97009.47
2024-02-05T19:05:38.705Z,97003.88
2024-02-05T19:08:05.093Z,97007.16
2024-02-05T19:10:31.590Z,97006.38
2024-02-05T19:12:58.229Z,97008.03
2024-02-05T19:15:24.676Z,97008.56
2024-02-05T19:17:51.083Z,97002.31
2024-02-05T19:20:17.659Z,97008.75
2024-02-05T19:22:44.161Z,97008.44
2024-02-05T19:25:10.621Z,97005.16
2024-02-05T19:27:37.046Z,97005.16
2024-02-05T19:30:03.399Z,97009.97
2024-02-05T19:32:29.798Z,97007.66
2024-02-05T19:34:56.178Z,97013.75
2024-02-05T19:37:22.566Z,96997.69
2024-02-05T19:39:48.992Z,96992.63
2024-02-05T19:42:15.355Z,96988.22
2024-02-05T19:44:41.738Z,96993.81
2024-02-05T19:47:08.064Z,96982.94
2024-02-05T19:49:34.452Z,96985.84
2024-02-05T19:52:00.890Z,96987.06
2024-02-05T19:54:27.259Z,96992.97
2024-02-05T19:56:53.614Z,96987.63
2024-02-05T19:59:19.984Z,96987.81
2024-02-05T20:01:46.384Z,96981.91
2024-02-05T20:04:12.873Z,96980.81
2024-02-05T20:06:39.305Z,96984.13
2024-02-05T20:09:05.675Z,96978.88
2024-02-05T20:11:32.025Z,96980.94
2024-02-05T20:13:58.410Z,96984.94
2024-02-05T20:16:24.810Z,96983.13
2024-02-05T20:18:51.224Z,96998.38
2024-02-05T20:21:17.674Z,96991.81
2024-02-05T20:23:44.045Z,96996.59
2024-02-05T20:26:10.410Z,96990.53
2024-02-05T20:28:36.858Z,96991.41
2024-02-05T20:31:03.302Z,96991.81
2024-02-05T20:33:29.816Z,96995.13
2024-02-05T20:35:56.239Z,96992.00
2024-02-05T20:38:22.589Z,96986.94
2024-02-05T20:40:49.039Z,96986.63
2024-02-05T20:43:15.575Z,96997.06
2024-02-05T20:45:41.933Z,96985.06
2024-02-05T20:48:08.441Z,96991.13
2024-02-05T20:50:34.981Z,96984.75
2024-02-05T20:53:03.121Z,96978.81
2024-02-05T20:55:31.434Z,96977.16
2024-02-05T20:57:57.973Z,96976.00
2024-02-05T21:00:24.334Z,96983.72
2024-02-05T21:02:50.687Z,96986.13
2024-02-05T21:05:17.185Z,96978.56
2024-02-05T21:07:43.839Z,96972.25
2024-02-05T21:10:10.323Z,96967.56
2024-02-05T21:12:36.718Z,96970.47
2024-02-05T21:15:03.058Z,96974.50
2024-02-05T21:17:29.429Z,96966.56
2024-02-05T21:19:55.861Z,96966.56
2024-02-05T21:22:22.276Z,96958.19
2024-02-05T21:24:49.254Z,96958.63
2024-02-05T21:27:16.514Z,96956.25
2024-02-05T21:29:42.861Z,96953.88
2024-02-05T21:32:09.223Z,96953.16
2024-02-05T21:34:35.725Z,96946.03
2024-02-05T21:37:02.178Z,96950.47
2024-02-05T21:39:28.568Z,96945.97
2024-02-05T21:41:54.929Z,96956.31
2024-02-05T21:44:21.278Z,96951.94
2024-02-05T21:46:47.619Z,96951.50
2024-02-05T21:49:14.092Z,96949.34
2024-02-05T21:51:40.489Z,96951.09
2024-02-05T21:54:06.818Z,96953.19
2024-02-05T21:56:33.221Z,96945.16
2024-02-05T21:58:59.558Z,96944.34
2024-02-05T22:01:26.025Z,96942.28
2024-02-05T22:03:52.543Z,96934.22
2024-02-05T22:06:19.021Z,96929.78
2024-02-05T22:08:45.521Z,96920.97
2024-02-05T22:11:11.927Z,96911.00
2024-02-05T22:13:38.312Z,96917.75
2024-02-05T22:16:04.763Z,96904.97
2024-02-05T22:18:31.249Z,96918.63
2024-02-05T22:20:57.650Z,96918.97
2024-02-05T22:23:24.008Z,96913.94
2024-02-05T22:25:50.387Z,96929.19
2024-02-05T22:28:16.843Z,96926.41
2024-02-05T22:30:43.255Z,96932.88
2024-02-05T22:33:09.661Z,96937.56
2024-02-05T22:35:36.102Z,96928.31
2024-02-05T22:38:02.479Z,96927.94
2024-02-05T22:40:28.867Z,96922.09
2024-02-05T22:42:55.244Z,96914.94
2024-02-05T22:45:21.601Z,96911.78
2024-02-05T22:47:48.040Z,96921.47
2024-02-05T22:50:14.469Z,96923.03
2024-02-05T22:52:40.912Z,96924.72
2024-02-05T22:55:07.428Z,96911.56
2024-02-05T22:57:33.867Z,96922.38
2024-02-05T23:00:00.457Z,96921.56
2024-02-05T23:02:26.969Z,96914.03
2024-02-05T23:04:53.413Z,96914.88
2024-02-05T23:07:19.886Z,96918.34
2024-02-05T23:09:46.332Z,96905.25
2024-02-05T23:12:12.703Z,96911.63
2024-02-05T23:14:39.042Z,96910.03
2024-02-05T23:17:05.474Z,96904.44
2024-02-05T23:19:31.986Z,96903.31
2024-02-05T23:21:58.435Z,96908.19
2024-02-05T23:24:24.920Z,96909.06
2024-02-05T23:26:51.286Z,96902.69
2024-02-05T23:29:17.662Z,96912.66
2024-02-05T23:31:44.085Z,96916.72
2024-02-05T23:34:10.663Z,96918.22
2024-02-05T23:36:37.145Z,96917.50
2024-02-05T23:39:03.521Z,96921.41
2024-02-05T23:41:29.974Z,96917.00
2024-02-05T23:43:56.398Z,96918.72
2024-02-05T23:46:22.818Z,96913.25
2024-02-05T23:48:49.236Z,96911.72
2024-02-05T23:51:15.594Z,96921.28
2024-02-05T23:53:41.969Z,96904.56
2024-02-05T23:56:08.434Z,96900.13
2024-02-05T23:58:35.456Z,96896.44
